Time;durP1;ratioP1;P1;durP2;ratioP2;P2;SDS_P1;SDS_P2;PMS_P1;PMS_P2;Temp;Humidity;BMP_temperature;BMP_pressure;BME280_temperature;BME280_humidity;BME280_pressure;Samples;Min_cycle;Max_cycle;Signal;HPM_P1;HPM_P2
2023/08/12 00:01:06;;;;;;;21.20;12.40;;;;;;;11.64;94.55;99507.02;141342;1243;22415;-79
2023/08/12 00:04:08;;;;;;;21.90;10.70;;;;;;;11.60;95.08;99504.84;141554;1243;22270;-80
2023/08/12 00:07:09;;;;;;;16.60;10.80;;;;;;;11.58;95.53;99501.86;141545;1243;22327;-79
2023/08/12 00:10:10;;;;;;;20.20;11.10;;;;;;;11.58;96.03;99500.45;140826;1242;22403;-80
2023/08/12 00:13:14;;;;;;;17.60;11.00;;;;;;;11.58;96.15;99497.83;141107;1243;22935;-80
2023/08/12 00:16:15;;;;;;;20.50;11.20;;;;;;;11.55;96.06;99496.56;141492;1243;22838;-80
2023/08/12 00:19:16;;;;;;;20.20;11.50;;;;;;;11.52;95.94;99496.69;140936;1243;22505;-80
2023/08/12 00:22:17;;;;;;;21.50;11.00;;;;;;;11.50;95.70;99496.98;140821;1243;22562;-82
2023/08/12 00:25:18;;;;;;;18.90;11.50;;;;;;;11.46;95.89;99493.44;141526;1243;22437;-82
2023/08/12 00:28:19;;;;;;;17.20;10.70;;;;;;;11.44;96.15;99490.26;140869;1243;22222;-81
2023/08/12 00:31:23;;;;;;;15.00;10.50;;;;;;;11.41;95.99;99490.20;140897;1243;22521;-81
2023/08/12 00:34:24;;;;;;;17.60;10.70;;;;;;;11.37;96.02;99487.35;141527;1238;22370;-81
2023/08/12 00:37:25;;;;;;;15.70;10.70;;;;;;;11.35;96.16;99484.86;141144;1243;22429;-81
2023/08/12 00:40:26;;;;;;;16.10;10.10;;;;;;;11.33;96.01;99481.86;140890;1243;22892;-80
2023/08/12 00:43:27;;;;;;;21.30;10.80;;;;;;;11.29;96.24;99486.82;141577;1239;22210;-80
2023/08/12 00:46:28;;;;;;;93.60;15.10;;;;;;;11.26;96.79;99481.36;141554;1243;22636;-80
2023/08/12 00:49:29;;;;;;;15.90;10.50;;;;;;;11.23;96.74;99480.06;141098;1243;22815;-80
2023/08/12 00:52:30;;;;;;;32.20;11.40;;;;;;;11.21;97.14;99480.54;140886;1243;22503;-81
2023/08/12 00:55:32;;;;;;;12.90;9.90;;;;;;;11.19;97.48;99482.25;141457;1243;22401;-80
2023/08/12 00:58:33;;;;;;;15.30;9.80;;;;;;;11.15;97.37;99483.58;140839;1243;22408;-81
2023/08/12 01:01:34;;;;;;;12.70;9.10;;;;;;;11.13;97.17;99485.62;140889;1243;22521;-81
2023/08/12 01:04:35;;;;;;;14.30;9.10;;;;;;;11.11;97.20;99485.92;141297;1243;22983;-82
2023/08/12 01:07:36;;;;;;;12.20;8.60;;;;;;;11.11;97.03;99483.14;140855;1243;22337;-81
2023/08/12 01:10:37;;;;;;;13.10;8.90;;;;;;;11.07;96.92;99484.27;140935;1243;22405;-80
2023/08/12 01:13:38;;;;;;;14.40;8.20;;;;;;;11.03;96.74;99476.88;141271;1243;22527;-82
2023/08/12 01:16:39;;;;;;;14.00;8.60;;;;;;;10.99;96.73;99479.42;141037;1243;22353;-80
2023/08/12 01:19:40;;;;;;;54.00;10.00;;;;;;;10.94;96.38;99480.36;141204;1243;22339;-80
2023/08/12 01:22:41;;;;;;;22.00;10.00;;;;;;;10.88;96.43;99480.77;141453;1243;22523;-80
2023/08/12 01:25:43;;;;;;;12.20;8.90;;;;;;;10.85;96.69;99480.88;141584;1243;22606;-80
2023/08/12 01:28:44;;;;;;;14.50;9.00;;;;;;;10.83;97.14;99481.88;141122;1243;22544;-79
2023/08/12 01:31:45;;;;;;;11.20;9.30;;;;;;;10.83;97.74;99486.23;141344;1243;22546;-80
2023/08/12 01:34:46;;;;;;;29.80;9.20;;;;;;;10.84;97.68;99485.04;141608;1243;22569;-80
2023/08/12 01:37:47;;;;;;;103.80;13.90;;;;;;;10.84;97.56;99480.69;141103;1243;22411;-80
2023/08/12 01:40:48;;;;;;;22.20;10.50;;;;;;;10.88;98.76;99480.07;141334;1243;22591;-80
2023/08/12 01:43:50;;;;;;;17.80;8.50;;;;;;;10.92;98.78;99483.46;141566;1243;22277;-80
2023/08/12 01:46:51;;;;;;;14.70;9.40;;;;;;;10.90;97.83;99484.63;140929;1243;22404;-80
2023/08/12 01:49:52;;;;;;;18.20;9.80;;;;;;;10.85;97.81;99486.10;140986;1243;22378;-80
2023/08/12 01:52:53;;;;;;;19.10;9.50;;;;;;;10.84;98.00;99485.73;141259;1243;22524;-81
2023/08/12 01:55:54;;;;;;;19.80;9.30;;;;;;;10.81;97.87;99481.84;141030;1243;22511;-80
2023/08/12 01:58:55;;;;;;;21.00;8.90;;;;;;;10.78;97.80;99484.55;140881;1243;22539;-81
2023/08/12 02:01:56;;;;;;;13.90;8.40;;;;;;;10.77;97.78;99481.23;141045;1243;22527;-83
2023/08/12 02:04:57;;;;;;;17.90;8.60;;;;;;;10.77;97.65;99485.92;141421;1243;22317;-81
2023/08/12 02:07:58;;;;;;;11.10;8.70;;;;;;;10.79;97.67;99489.11;140891;1240;22456;-82
2023/08/12 02:10:59;;;;;;;11.80;8.30;;;;;;;10.77;97.14;99489.77;140922;1243;22519;-80
2023/08/12 02:14:00;;;;;;;11.60;8.40;;;;;;;10.71;96.74;99488.06;141554;1243;22231;-80
2023/08/12 02:17:01;;;;;;;9.10;7.90;;;;;;;10.65;96.60;99487.59;140930;1243;22524;-80
2023/08/12 02:20:03;;;;;;;13.70;8.10;;;;;;;10.63;96.86;99491.19;140946;1243;22594;-81
2023/08/12 02:23:04;;;;;;;43.50;9.40;;;;;;;10.61;97.19;99493.23;141548;1243;22430;-81
2023/08/12 02:26:05;;;;;;;20.20;8.50;;;;;;;10.57;97.09;99490.36;141023;1243;22400;-82
2023/08/12 02:29:06;;;;;;;11.10;8.50;;;;;;;10.53;96.78;99489.23;140969;1243;22402;-81
2023/08/12 02:32:10;;;;;;;12.20;8.00;;;;;;;10.48;96.89;99494.17;141277;1243;22551;-81
2023/08/12 02:35:11;;;;;;;14.60;8.80;;;;;;;10.46;97.09;99497.09;141358;1243;22403;-81
2023/08/12 02:38:12;;;;;;;19.90;9.00;;;;;;;10.43;97.25;99490.92;140928;1243;22414;-81
2023/08/12 02:41:13;;;;;;;13.80;7.90;;;;;;;10.42;97.83;99492.31;141578;1243;22255;-81
2023/08/12 02:44:14;;;;;;;13.60;7.80;;;;;;;10.41;97.41;99489.66;141529;1243;22287;-81
2023/08/12 02:47:15;;;;;;;13.80;7.70;;;;;;;10.40;97.57;99495.38;140985;1243;23199;-81
2023/08/12 02:50:16;;;;;;;96.10;13.10;;;;;;;10.40;97.29;99501.09;141016;1242;22581;-80
2023/08/12 02:53:18;;;;;;;23.10;8.20;;;;;;;10.37;97.26;99500.32;141570;1243;22809;-81
2023/08/12 02:56:19;;;;;;;14.50;7.80;;;;;;;10.36;97.17;99500.99;141013;1240;22405;-81
2023/08/12 02:59:20;;;;;;;28.50;8.40;;;;;;;10.34;96.91;99504.59;140912;1241;22830;-81
2023/08/12 03:02:21;;;;;;;12.40;7.60;;;;;;;10.30;97.21;99504.70;141245;1243;22522;-81
2023/08/12 03:05:22;;;;;;;21.70;8.80;;;;;;;10.30;97.69;99502.95;141241;1243;22463;-80
2023/08/12 03:08:24;;;;;;;34.40;8.80;;;;;;;10.31;97.66;99504.72;140950;1243;22386;-82
2023/08/12 03:11:28;;;;;;;93.30;10.80;;;;;;;10.31;97.76;99506.98;140990;1243;22518;-82
2023/08/12 03:14:29;;;;;;;14.40;7.70;;;;;;;10.30;96.92;99508.67;141441;1243;22423;-81
2023/08/12 03:17:31;;;;;;;13.90;7.80;;;;;;;10.25;96.81;99511.52;140940;1243;22171;-81
2023/08/12 03:20:32;;;;;;;9.50;7.00;;;;;;;10.23;96.89;99507.30;140913;1243;22540;-80
2023/08/12 03:23:33;;;;;;;13.40;7.50;;;;;;;10.21;97.30;99509.52;141559;1243;22279;-81
2023/08/12 03:26:34;;;;;;;15.70;7.40;;;;;;;10.21;97.43;99509.16;141100;1243;22401;-81
2023/08/12 03:29:35;;;;;;;15.70;7.40;;;;;;;10.19;97.45;99509.98;141565;1243;22513;-81
2023/08/12 03:32:36;;;;;;;11.40;7.20;;;;;;;10.19;97.24;99509.97;141331;1243;22522;-82
2023/08/12 03:35:37;;;;;;;12.50;6.90;;;;;;;10.19;97.10;99510.66;141155;1243;22420;-81
2023/08/12 03:38:38;;;;;;;20.50;8.30;;;;;;;10.17;97.37;99513.56;140918;1243;22965;-81
2023/08/12 03:41:40;;;;;;;17.60;6.70;;;;;;;10.18;97.36;99506.98;141113;1243;22510;-83
2023/08/12 03:44:41;;;;;;;13.00;6.80;;;;;;;10.18;97.31;99503.69;141267;1243;22960;-79
2023/08/12 03:47:42;;;;;;;9.10;7.10;;;;;;;10.17;97.40;99506.27;141290;1243;22368;-79
2023/08/12 03:50:45;;;;;;;9.60;7.10;;;;;;;10.20;97.74;99509.67;141559;1243;22221;-80
2023/08/12 03:53:46;;;;;;;11.00;6.90;;;;;;;10.25;97.70;99506.13;141527;1243;22164;-79
2023/08/12 03:56:47;;;;;;;11.70;7.20;;;;;;;10.27;97.39;99502.52;140286;1243;22539;-79
2023/08/12 03:59:48;;;;;;;9.40;7.90;;;;;;;10.29;97.25;99504.48;140894;1243;22532;-80
2023/08/12 04:02:49;;;;;;;13.00;7.20;;;;;;;10.33;97.56;99504.92;141483;1243;22510;-80
2023/08/12 04:05:53;;;;;;;10.60;6.70;;;;;;;10.39;97.81;99503.66;140968;1243;22373;-80
2023/08/12 04:08:54;;;;;;;255.30;25.00;;;;;;;10.43;97.91;99502.23;140851;1243;22437;-81
2023/08/12 04:11:57;;;;;;;178.80;19.10;;;;;;;10.60;100.00;99502.28;141588;1243;22749;-80
2023/08/12 04:14:59;;;;;;;17.80;8.90;;;;;;;10.76;98.92;99500.71;141578;1243;22377;-80
2023/08/12 04:18:00;;;;;;;922.40;83.30;;;;;;;10.79;97.23;99498.86;140841;1243;22397;-81
2023/08/12 04:21:01;;;;;;;107.10;14.30;;;;;;;10.84;97.56;99498.95;141286;1243;22512;-81
2023/08/12 04:24:03;;;;;;;33.20;9.30;;;;;;;10.91;96.94;99504.67;141422;1243;22430;-80
2023/08/12 04:27:04;;;;;;;14.20;8.30;;;;;;;10.97;96.57;99506.72;141562;1243;23094;-80
2023/08/12 04:30:05;;;;;;;13.70;7.60;;;;;;;11.03;96.54;99503.72;141563;1243;22443;-81
2023/08/12 04:33:06;;;;;;;53.10;9.60;;;;;;;11.09;96.34;99504.18;141511;1243;22747;-82
2023/08/12 04:36:07;;;;;;;13.20;7.80;;;;;;;11.19;96.66;99504.73;141496;1243;22676;-82
2023/08/12 04:39:08;;;;;;;109.00;14.60;;;;;;;11.33;96.86;99512.00;141122;1243;22421;-80
2023/08/12 04:42:09;;;;;;;23.30;8.90;;;;;;;11.48;97.00;99509.50;141650;1243;22311;-81
2023/08/12 04:45:10;;;;;;;12.90;8.30;;;;;;;11.65;97.58;99509.80;141416;1243;22855;-80
2023/08/12 04:48:11;;;;;;;10.70;7.50;;;;;;;11.91;97.85;99514.14;140863;1243;22521;-80
2023/08/12 04:51:14;;;;;;;76.60;12.30;;;;;;;12.18;97.49;99518.11;140760;1243;22551;-81
2023/08/12 04:54:15;;;;;;;15.20;9.30;;;;;;;12.47;96.57;99518.22;141222;1243;22843;-79
2023/08/12 04:57:16;;;;;;;10.90;8.20;;;;;;;12.73;95.55;99522.08;141544;1243;22157;-79
2023/08/12 05:00:17;;;;;;;32.90;9.50;;;;;;;12.97;94.11;99521.19;141530;1243;22684;-79
2023/08/12 05:03:19;;;;;;;26.60;10.70;;;;;;;13.20;93.04;99522.04;141512;1243;22295;-79
2023/08/12 05:06:20;;;;;;;21.30;8.50;;;;;;;13.45;92.98;99514.30;141327;1243;22257;-79
2023/08/12 05:09:21;;;;;;;12.10;8.30;;;;;;;13.70;92.69;99510.89;141100;1243;22526;-80
2023/08/12 05:12:22;;;;;;;316.80;28.40;;;;;;;13.96;92.40;99508.19;141537;1243;22371;-80
2023/08/12 05:15:23;;;;;;;12.40;7.90;;;;;;;14.19;92.04;99502.27;140814;1243;22385;-80
2023/08/12 05:18:24;;;;;;;12.90;8.20;;;;;;;14.43;92.00;99503.67;140637;1239;22587;-80
2023/08/12 05:21:25;;;;;;;14.50;9.00;;;;;;;14.73;91.81;99504.77;141412;1243;22515;-80
2023/08/12 05:24:26;;;;;;;11.60;9.20;;;;;;;15.22;92.20;99498.52;140763;1243;22448;-81
2023/08/12 05:27:27;;;;;;;12.60;8.80;;;;;;;15.59;90.59;99492.52;140530;1243;24185;-81
2023/08/12 05:30:28;;;;;;;13.30;8.50;;;;;;;15.86;89.42;99489.09;141553;1243;22916;-80
2023/08/12 05:33:30;;;;;;;11.30;8.10;;;;;;;15.96;87.16;99486.81;141553;1243;22443;-81
2023/08/12 05:36:31;;;;;;;13.10;9.20;;;;;;;16.05;86.81;99485.58;141141;1243;22403;-81
2023/08/12 05:39:32;;;;;;;33.30;10.10;;;;;;;16.32;87.07;99492.59;141299;1243;22627;-79
2023/08/12 05:42:33;;;;;;;44.80;10.80;;;;;;;16.63;86.58;99493.46;141015;1243;22374;-81
2023/08/12 05:45:34;;;;;;;118.70;18.50;;;;;;;16.85;85.62;99495.35;140826;1243;22967;-79
2023/08/12 05:48:35;;;;;;;20.30;9.00;;;;;;;17.13;85.12;99492.61;140863;1243;23359;-80
2023/08/12 05:51:38;;;;;;;18.30;9.40;;;;;;;17.34;84.22;99488.48;141249;1243;22900;-79
2023/08/12 05:54:39;;;;;;;13.00;8.90;;;;;;;17.62;83.47;99498.73;140725;1243;22545;-79
2023/08/12 05:57:40;;;;;;;21.50;9.90;;;;;;;18.00;82.16;99496.20;140791;1243;22546;-79
2023/08/12 06:00:45;;;;;;;17.00;9.50;;;;;;;18.35;80.46;99498.05;141538;1243;22579;-78
2023/08/12 06:03:46;;;;;;;11.20;8.70;;;;;;;18.62;79.29;99496.21;141181;1243;22431;-78
2023/08/12 06:06:47;;;;;;;9.60;7.70;;;;;;;18.84;78.64;99492.11;141192;1243;22541;-80
2023/08/12 06:09:48;;;;;;;11.00;7.70;;;;;;;19.09;77.56;99492.19;141273;1243;22525;-80
2023/08/12 06:12:49;;;;;;;12.40;7.10;;;;;;;19.26;76.38;99487.93;141406;1243;22366;-80
2023/08/12 06:15:50;;;;;;;429.10;40.50;;;;;;;19.49;75.19;99492.91;140995;1243;22554;-82
2023/08/12 06:18:51;;;;;;;13.00;7.70;;;;;;;19.73;74.49;99495.60;141511;1243;22552;-80
2023/08/12 06:21:53;;;;;;;51.70;9.60;;;;;;;20.04;73.49;99485.77;141435;1241;22115;-81
2023/08/12 06:24:54;;;;;;;15.80;6.80;;;;;;;20.34;72.56;99485.99;141052;1243;22406;-81
2023/08/12 06:27:55;;;;;;;16.10;7.00;;;;;;;20.72;71.86;99483.73;141216;1243;22475;-81
2023/08/12 06:30:56;;;;;;;11.00;6.20;;;;;;;21.03;69.75;99488.98;141524;1243;22394;-81
2023/08/12 06:33:57;;;;;;;11.00;5.80;;;;;;;21.20;68.44;99484.41;141563;1243;22327;-82
2023/08/12 06:36:58;;;;;;;10.80;5.00;;;;;;;21.51;67.65;99484.28;141514;1243;22282;-83
2023/08/12 06:39:59;;;;;;;144.90;15.70;;;;;;;21.80;66.15;99486.46;141524;1243;22330;-81
2023/08/12 06:43:00;;;;;;;10.10;5.10;;;;;;;22.13;64.04;99486.39;141127;1243;22848;-82
2023/08/12 06:46:01;;;;;;;9.70;4.80;;;;;;;22.36;61.96;99487.09;140957;1243;22514;-81
2023/08/12 06:49:03;;;;;;;9.50;4.90;;;;;;;22.61;61.45;99487.66;141515;1243;22362;-81
2023/08/12 06:52:06;;;;;;;5.60;4.60;;;;;;;22.91;60.01;99490.79;141534;1243;22206;-82
2023/08/12 06:55:07;;;;;;;8.80;4.40;;;;;;;23.14;58.52;99489.41;140990;1240;22383;-81
2023/08/12 06:58:08;;;;;;;6.60;4.80;;;;;;;23.26;57.37;99484.45;141167;1243;22492;-82
2023/08/12 07:01:09;;;;;;;8.00;4.80;;;;;;;23.23;56.88;99482.77;141322;1243;22472;-82
2023/08/12 07:04:10;;;;;;;6.00;4.40;;;;;;;23.30;57.43;99482.75;141003;1243;22465;-82
2023/08/12 07:07:11;;;;;;;6.30;4.20;;;;;;;23.48;56.43;99481.69;141051;1243;22565;-81
2023/08/12 07:10:12;;;;;;;7.80;4.50;;;;;;;23.55;55.56;99478.86;141512;1243;22421;-81
2023/08/12 07:13:13;;;;;;;6.80;4.00;;;;;;;23.67;55.75;99474.39;141374;1243;22405;-82
2023/08/12 07:16:15;;;;;;;9.40;4.60;;;;;;;23.84;55.13;99469.75;141060;1243;23012;-81
2023/08/12 07:19:16;;;;;;;5.80;4.60;;;;;;;23.96;54.40;99471.33;141491;1243;22533;-82
2023/08/12 07:22:20;;;;;;;5.70;3.80;;;;;;;23.99;54.23;99472.81;140880;1243;22441;-81
2023/08/12 07:25:21;;;;;;;9.20;3.90;;;;;;;24.04;53.61;99474.07;140904;1243;22434;-81
2023/08/12 07:28:23;;;;;;;5.10;4.00;;;;;;;24.13;53.57;99470.04;141232;1243;22690;-81
2023/08/12 07:31:24;;;;;;;7.20;4.60;;;;;;;24.37;53.25;99470.38;141058;1241;22681;-82
2023/08/12 07:34:25;;;;;;;9.10;4.30;;;;;;;24.49;52.51;99467.45;140970;1243;22423;-82
2023/08/12 07:37:26;;;;;;;7.80;4.10;;;;;;;24.63;52.09;99471.77;141063;1243;22550;-82
2023/08/12 07:40:27;;;;;;;7.00;4.00;;;;;;;24.68;51.65;99470.15;141266;1243;22573;-83
2023/08/12 07:43:29;;;;;;;6.90;3.50;;;;;;;24.79;51.58;99470.48;140916;1243;23093;-81
2023/08/12 07:46:30;;;;;;;8.30;3.30;;;;;;;24.94;49.45;99469.92;140994;1243;22533;-82
2023/08/12 07:49:31;;;;;;;6.40;3.40;;;;;;;25.01;48.98;99468.45;141448;1243;22368;-83
2023/08/12 07:52:32;;;;;;;6.10;3.60;;;;;;;25.04;48.27;99469.23;141232;1243;22881;-83
2023/08/12 07:55:33;;;;;;;16.30;4.60;;;;;;;25.17;47.56;99469.13;141115;1243;23275;-84
2023/08/12 07:58:34;;;;;;;5.70;4.30;;;;;;;25.38;47.50;99469.06;141277;1243;22570;-82
2023/08/12 08:01:35;;;;;;;8.30;3.80;;;;;;;25.60;47.72;99461.77;141417;1243;22781;-82
2023/08/12 08:04:36;;;;;;;8.30;3.60;;;;;;;25.87;47.32;99460.17;141515;1243;22882;-81
2023/08/12 08:07:37;;;;;;;5.90;3.40;;;;;;;26.07;45.88;99453.69;141563;1243;22449;-82
2023/08/12 08:10:38;;;;;;;6.10;4.10;;;;;;;26.03;45.42;99448.66;140931;1243;22492;-81
2023/08/12 08:13:40;;;;;;;4.40;3.50;;;;;;;26.02;45.07;99446.56;141008;1243;22433;-82
2023/08/12 08:16:42;;;;;;;5.70;3.00;;;;;;;26.10;44.81;99440.90;141541;1243;22417;-82
2023/08/12 08:19:43;;;;;;;5.90;3.30;;;;;;;26.22;44.00;99437.16;141559;1243;22776;-82
2023/08/12 08:22:44;;;;;;;7.70;3.20;;;;;;;26.27;43.47;99434.44;141374;1243;22465;-82
2023/08/12 08:25:45;;;;;;;4.80;3.10;;;;;;;26.44;42.84;99430.54;141524;1243;22339;-82
2023/08/12 08:28:47;;;;;;;4.50;2.60;;;;;;;26.66;42.01;99434.39;141509;1243;22292;-82
2023/08/12 08:31:48;;;;;;;29.50;5.10;;;;;;;26.76;40.88;99431.45;141537;1243;22262;-82
2023/08/12 08:34:49;;;;;;;3.90;2.70;;;;;;;26.76;40.12;99426.98;141025;1243;22492;-81
2023/08/12 08:37:50;;;;;;;3.10;2.80;;;;;;;26.76;40.42;99419.67;141316;1243;22436;-82
2023/08/12 08:40:51;;;;;;;7.10;3.00;;;;;;;26.98;40.28;99421.02;141163;1243;22353;-82
2023/08/12 08:43:52;;;;;;;4.40;2.80;;;;;;;27.20;39.17;99426.25;141002;1243;22864;-82
2023/08/12 08:46:53;;;;;;;2.70;2.50;;;;;;;27.10;38.94;99425.11;141458;1243;22370;-82
2023/08/12 08:49:55;;;;;;;5.30;3.00;;;;;;;27.06;39.72;99427.29;141526;1243;22262;-82
2023/08/12 08:52:56;;;;;;;4.30;3.10;;;;;;;27.23;39.76;99423.80;141491;1243;22970;-82
2023/08/12 08:55:57;;;;;;;4.10;3.20;;;;;;;27.28;39.54;99424.45;141554;1243;22380;-82
2023/08/12 08:58:58;;;;;;;6.90;3.50;;;;;;;27.26;39.40;99420.77;141070;1243;22361;-82
2023/08/12 09:01:59;;;;;;;7.20;3.00;;;;;;;27.42;39.35;99422.55;141072;1243;22407;-82
2023/08/12 09:05:00;;;;;;;3.70;3.40;;;;;;;27.45;39.51;99415.77;141448;1243;22649;-83
2023/08/12 09:08:01;;;;;;;6.30;3.40;;;;;;;27.56;39.11;99416.65;141270;1243;22992;-82
2023/08/12 09:11:02;;;;;;;9.90;3.70;;;;;;;27.54;39.17;99416.73;141587;1243;22326;-82
2023/08/12 09:14:03;;;;;;;3.40;3.10;;;;;;;27.56;38.97;99418.29;141143;1243;22521;-83
2023/08/12 09:17:05;;;;;;;7.80;3.70;;;;;;;27.49;39.01;99414.49;141289;1243;22564;-82
2023/08/12 09:20:11;;;;;;;5.70;3.10;;;;;;;27.56;38.98;99410.42;141249;1243;22405;-82
2023/08/12 09:23:12;;;;;;;6.90;3.30;;;;;;;27.77;38.93;99406.92;141056;1243;22590;-82
2023/08/12 09:26:14;;;;;;;4.90;4.30;;;;;;;27.88;38.55;99405.65;141400;1243;22905;-82
2023/08/12 09:29:15;;;;;;;3.90;2.90;;;;;;;27.83;38.31;99409.84;140870;1243;22392;-82
2023/08/12 09:32:16;;;;;;;9.10;3.10;;;;;;;27.65;37.61;99409.29;140896;1243;22749;-81
2023/08/12 09:35:18;;;;;;;10.00;3.00;;;;;;;27.43;37.78;99410.52;141514;1243;22702;-82
2023/08/12 09:38:19;;;;;;;5.50;3.20;;;;;;;27.39;38.20;99407.84;141049;1243;22371;-82
2023/08/12 09:41:20;;;;;;;3.10;2.70;;;;;;;27.39;37.50;99406.05;140784;1243;22537;-82
2023/08/12 09:44:22;;;;;;;8.20;3.10;;;;;;;27.33;37.55;99404.02;141535;1243;22241;-82
2023/08/12 09:47:23;;;;;;;5.60;2.90;;;;;;;27.40;37.90;99400.48;141539;1243;22312;-82
2023/08/12 09:50:25;;;;;;;3.50;3.00;;;;;;;27.61;37.68;99391.07;141371;1243;22394;-82
2023/08/12 09:53:26;;;;;;;3.50;2.70;;;;;;;27.70;37.41;99389.38;141466;1243;22592;-82
2023/08/12 09:56:28;;;;;;;3.00;2.80;;;;;;;27.74;37.21;99388.13;141201;1243;22522;-82
2023/08/12 09:59:29;;;;;;;3.60;2.70;;;;;;;27.53;36.63;99383.20;141534;1243;22231;-81
2023/08/12 10:02:30;;;;;;;4.10;2.60;;;;;;;27.40;37.19;99379.73;141063;1243;23104;-81
2023/08/12 10:05:31;;;;;;;2.90;2.70;;;;;;;27.33;37.30;99372.36;141545;1243;22324;-82
2023/08/12 10:08:32;;;;;;;3.80;3.20;;;;;;;27.44;38.27;99369.35;141032;1243;22373;-82
2023/08/12 10:11:33;;;;;;;4.80;2.90;;;;;;;27.85;38.63;99367.20;141032;1243;24178;-82
2023/08/12 10:14:34;;;;;;;5.20;3.10;;;;;;;28.14;37.67;99364.09;141525;1243;22389;-82
2023/08/12 10:17:36;;;;;;;4.60;2.80;;;;;;;28.31;37.55;99367.55;141132;1243;22417;-82
2023/08/12 10:20:37;;;;;;;7.90;2.80;;;;;;;28.39;36.80;99363.92;141569;1243;22200;-82
2023/08/12 10:23:38;;;;;;;5.50;3.30;;;;;;;28.44;36.73;99360.05;141424;1240;22621;-82
2023/08/12 10:26:39;;;;;;;5.50;3.20;;;;;;;28.52;37.12;99360.14;141144;1243;22377;-82
2023/08/12 10:29:40;;;;;;;3.70;3.40;;;;;;;28.56;36.76;99357.95;141531;1243;22297;-82
2023/08/12 10:32:41;;;;;;;3.30;2.80;;;;;;;28.53;36.71;99359.02;141365;1243;22512;-83
2023/08/12 10:35:42;;;;;;;3.00;2.50;;;;;;;28.53;35.96;99358.83;141326;1243;22475;-82
2023/08/12 10:38:44;;;;;;;5.60;3.20;;;;;;;28.61;36.18;99355.40;141026;1243;22406;-81
2023/08/12 10:41:45;;;;;;;4.10;2.40;;;;;;;28.77;36.39;99356.16;141270;1243;22566;-82
2023/08/12 10:44:46;;;;;;;4.20;2.90;;;;;;;28.95;36.47;99350.56;141479;1243;22433;-82
2023/08/12 10:47:47;;;;;;;4.80;2.90;;;;;;;29.03;36.21;99349.02;140862;1240;22976;-80
2023/08/12 10:50:48;;;;;;;4.60;2.50;;;;;;;29.08;36.24;99345.48;141515;1243;22407;-82
2023/08/12 10:53:49;;;;;;;7.00;3.40;;;;;;;28.99;36.71;99337.61;141514;1243;22293;-83
2023/08/12 10:56:51;;;;;;;2.80;2.60;;;;;;;28.88;36.03;99335.52;141106;1243;22477;-82
2023/08/12 10:59:52;;;;;;;6.30;2.80;;;;;;;28.70;35.78;99334.34;140948;1238;204866;-82
2023/08/12 11:02:53;;;;;;;3.90;3.50;;;;;;;28.55;36.15;99334.39;141526;1243;22296;-82
2023/08/12 11:05:55;;;;;;;3.60;3.20;;;;;;;28.61;36.30;99329.63;141559;1243;22407;-82
2023/08/12 11:08:56;;;;;;;4.60;3.10;;;;;;;28.50;36.19;99330.16;140949;1243;22404;-81
2023/08/12 11:11:58;;;;;;;3.00;2.70;;;;;;;28.44;36.24;99331.37;141440;1243;22533;-82
2023/08/12 11:14:59;;;;;;;2.90;2.60;;;;;;;28.32;36.25;99328.10;141305;1243;22534;-82
2023/08/12 11:18:00;;;;;;;6.80;2.60;;;;;;;28.40;36.97;99325.33;141196;1243;22456;-82
2023/08/12 11:21:02;;;;;;;5.00;2.80;;;;;;;28.48;36.33;99324.17;141580;1237;22258;-82
2023/08/12 11:24:03;;;;;;;4.30;2.70;;;;;;;28.35;35.72;99321.70;141423;1243;22546;-82
2023/08/12 11:27:04;;;;;;;5.20;3.20;;;;;;;28.28;35.61;99322.96;141110;1243;22464;-82
2023/08/12 11:30:05;;;;;;;4.20;2.60;;;;;;;28.25;35.77;99318.80;140863;1243;22534;-81
2023/08/12 11:33:06;;;;;;;5.10;2.80;;;;;;;28.24;35.67;99314.77;141566;1243;22367;-82
2023/08/12 11:36:07;;;;;;;4.30;3.10;;;;;;;28.22;36.38;99309.48;140915;1243;22413;-82
2023/08/12 11:39:09;;;;;;;3.70;3.00;;;;;;;28.39;36.82;99310.70;140962;1240;22439;-82
2023/08/12 11:42:10;;;;;;;6.50;2.70;;;;;;;28.39;35.34;99307.67;141429;1243;22641;-83
2023/08/12 11:45:11;;;;;;;3.60;2.70;;;;;;;28.34;35.66;99307.08;140939;1243;23001;-83
2023/08/12 11:48:12;;;;;;;3.30;2.60;;;;;;;28.45;36.10;99305.01;140956;1243;22401;-82
2023/08/12 11:51:13;;;;;;;2.80;2.20;;;;;;;28.51;35.91;99304.71;141439;1243;22997;-83
2023/08/12 11:54:14;;;;;;;6.40;3.00;;;;;;;28.52;35.71;99296.97;141279;1243;22372;-83
2023/08/12 11:57:15;;;;;;;6.90;2.50;;;;;;;28.64;36.40;99290.78;140798;1243;22199;-83
2023/08/12 12:00:18;;;;;;;4.50;2.70;;;;;;;28.63;35.71;99288.69;141123;1243;22516;-85
2023/08/12 12:03:19;;;;;;;9.50;2.70;;;;;;;28.71;35.78;99283.59;141456;1243;22374;-83
2023/08/12 12:06:20;;;;;;;7.80;2.90;;;;;;;28.78;35.86;99281.06;140938;1243;22682;-83
2023/08/12 12:09:22;;;;;;;7.50;4.00;;;;;;;28.80;36.43;99282.73;140874;1243;22616;-82
2023/08/12 12:12:23;;;;;;;5.70;2.80;;;;;;;28.93;37.22;99278.23;141561;1243;22367;-82
2023/08/12 12:15:24;;;;;;;6.60;2.70;;;;;;;28.96;35.42;99277.91;140975;1243;22438;-82
2023/08/12 12:18:26;;;;;;;10.00;3.40;;;;;;;28.76;36.26;99275.96;140876;1243;22799;-83
2023/08/12 12:21:27;;;;;;;4.60;2.70;;;;;;;28.91;36.18;99269.61;141412;1241;22522;-83
2023/08/12 12:24:28;;;;;;;3.80;2.90;;;;;;;28.97;36.06;99266.95;141054;1243;22323;-82
2023/08/12 12:27:29;;;;;;;6.90;2.70;;;;;;;29.03;36.02;99264.45;140711;1243;22517;-82
2023/08/12 12:30:30;;;;;;;4.00;2.40;;;;;;;29.06;35.45;99257.47;141224;1243;22541;-81
2023/08/12 12:33:31;;;;;;;2.80;2.40;;;;;;;28.98;35.14;99257.57;141275;1243;22382;-82
2023/08/12 12:36:32;;;;;;;4.80;2.50;;;;;;;28.84;34.39;99255.83;140908;1238;22383;-83
2023/08/12 12:39:33;;;;;;;7.20;2.70;;;;;;;28.76;34.50;99253.36;141016;1243;24155;-83
2023/08/12 12:42:34;;;;;;;5.00;3.40;;;;;;;28.66;34.46;99254.36;141394;1243;22349;-83
2023/08/12 12:45:35;;;;;;;5.20;2.70;;;;;;;28.64;34.79;99253.90;140839;1243;24199;-82
2023/08/12 12:48:36;;;;;;;3.60;2.50;;;;;;;28.76;34.92;99254.09;140927;1243;24161;-80
2023/08/12 12:51:37;;;;;;;2.60;2.30;;;;;;;28.82;35.36;99247.72;141565;1243;22372;-82
2023/08/12 12:54:38;;;;;;;2.50;2.30;;;;;;;28.86;34.71;99241.41;140907;1243;22535;-82
2023/08/12 12:57:39;;;;;;;2.60;2.10;;;;;;;29.00;35.33;99240.59;140815;1243;22933;-82
2023/08/12 13:00:41;;;;;;;11.70;3.70;;;;;;;29.06;34.49;99235.74;141488;1243;22430;-82
2023/08/12 13:03:42;;;;;;;3.40;2.40;;;;;;;29.14;35.37;99234.91;140999;1243;22514;-84
2023/08/12 13:06:43;;;;;;;6.60;2.80;;;;;;;29.18;34.66;99235.09;140973;1243;22294;-83
2023/08/12 13:09:44;;;;;;;6.20;2.80;;;;;;;29.16;35.65;99231.42;141327;1243;26045;-84
2023/08/12 13:12:45;;;;;;;3.60;2.40;;;;;;;29.31;35.84;99231.98;141120;1243;22457;-82
2023/08/12 13:15:46;;;;;;;2.60;2.40;;;;;;;29.49;36.24;99228.81;140837;1243;23033;-82
2023/08/12 13:18:47;;;;;;;2.70;2.30;;;;;;;29.63;35.21;99224.41;141117;1243;24169;-82
2023/08/12 13:21:49;;;;;;;4.00;2.90;;;;;;;29.68;35.86;99223.73;141421;1243;22380;-82
2023/08/12 13:24:50;;;;;;;4.60;2.50;;;;;;;29.80;35.57;99218.70;140940;1243;22386;-81
2023/08/12 13:27:51;;;;;;;4.70;2.90;;;;;;;29.80;35.91;99217.64;141252;1243;22578;-81
2023/08/12 13:30:55;;;;;;;5.10;2.80;;;;;;;29.87;36.28;99216.85;141333;1243;22401;-82
2023/08/12 13:33:56;;;;;;;4.00;2.40;;;;;;;30.00;35.61;99213.36;140863;1243;22396;-81
2023/08/12 13:36:57;;;;;;;3.30;2.50;;;;;;;30.04;35.36;99214.22;140957;1243;22513;-81
2023/08/12 13:39:58;;;;;;;3.50;2.80;;;;;;;29.95;35.92;99212.05;141461;1228;22498;-81
2023/08/12 13:42:59;;;;;;;6.80;3.00;;;;;;;29.80;35.57;99211.20;141099;1243;22363;-80
2023/08/12 13:46:00;;;;;;;4.10;2.50;;;;;;;29.79;36.34;99209.60;140987;1243;22375;-81
2023/08/12 13:49:01;;;;;;;6.30;2.90;;;;;;;29.93;35.30;99210.91;141292;1243;22501;-81
2023/08/12 13:52:03;;;;;;;6.30;2.80;;;;;;;29.96;36.15;99206.25;141231;1243;22500;-81
2023/08/12 13:55:04;;;;;;;7.70;2.70;;;;;;;29.94;35.55;99205.14;140896;1243;22400;-83